sensor_id;sensor_type;location;lat;lon;timestamp;P1;durP1;ratioP1;P2;durP2;ratioP2
72115;SDS011;59991;52.140;5.428;2022-12-18T00:00:06;54.35;;;27.17;;
72115;SDS011;59991;52.140;5.428;2022-12-18T00:00:42;56.63;;;28.58;;
72115;SDS011;59991;52.140;5.428;2022-12-18T00:01:21;52.78;;;26.42;;
72115;SDS011;59991;52.140;5.428;2022-12-18T00:01:56;49.28;;;25.83;;
72115;SDS011;59991;52.140;5.428;2022-12-18T00:02:29;50.78;;;27.17;;
72115;SDS011;59991;52.140;5.428;2022-12-18T00:03:01;53.42;;;26.95;;
72115;SDS011;59991;52.140;5.428;2022-12-18T00:03:33;54.33;;;28.38;;
72115;SDS011;59991;52.140;5.428;2022-12-18T00:04:06;50.83;;;27.30;;
72115;SDS011;59991;52.140;5.428;2022-12-18T00:04:39;51.10;;;26.30;;
72115;SDS011;59991;52.140;5.428;2022-12-18T00:05:11;51.42;;;27.60;;
72115;SDS011;59991;52.140;5.428;2022-12-18T00:05:46;50.25;;;28.55;;
72115;SDS011;59991;52.140;5.428;2022-12-18T00:06:22;52.85;;;27.88;;
72115;SDS011;59991;52.140;5.428;2022-12-18T00:06:55;51.28;;;26.13;;
72115;SDS011;59991;52.140;5.428;2022-12-18T00:07:27;54.03;;;27.77;;
72115;SDS011;59991;52.140;5.428;2022-12-18T00:07:59;53.10;;;28.10;;
72115;SDS011;59991;52.140;5.428;2022-12-18T00:08:32;55.25;;;29.02;;
72115;SDS011;59991;52.140;5.428;2022-12-18T00:09:03;53.28;;;28.73;;
72115;SDS011;59991;52.140;5.428;2022-12-18T00:09:35;48.80;;;26.63;;
72115;SDS011;59991;52.140;5.428;2022-12-18T00:10:10;56.05;;;28.73;;
72115;SDS011;59991;52.140;5.428;2022-12-18T00:10:45;51.67;;;26.83;;
72115;SDS011;59991;52.140;5.428;2022-12-18T00:11:18;53.95;;;28.35;;
72115;SDS011;59991;52.140;5.428;2022-12-18T00:11:51;56.53;;;31.02;;
72115;SDS011;59991;52.140;5.428;2022-12-18T00:12:22;50.97;;;26.50;;
72115;SDS011;59991;52.140;5.428;2022-12-18T00:12:54;58.17;;;29.05;;
72115;SDS011;59991;52.140;5.428;2022-12-18T00:13:26;57.67;;;28.67;;
72115;SDS011;59991;52.140;5.428;2022-12-18T00:13:59;54.17;;;28.88;;
72115;SDS011;59991;52.140;5.428;2022-12-18T00:14:30;52.60;;;28.65;;
72115;SDS011;59991;52.140;5.428;2022-12-18T00:15:02;55.03;;;29.53;;
72115;SDS011;59991;52.140;5.428;2022-12-18T00:15:35;51.30;;;28.05;;
72115;SDS011;59991;52.140;5.428;2022-12-18T00:16:15;52.85;;;29.25;;
72115;SDS011;59991;52.140;5.428;2022-12-18T00:16:51;53.00;;;27.98;;
72115;SDS011;59991;52.140;5.428;2022-12-18T00:17:23;55.92;;;29.52;;
72115;SDS011;59991;52.140;5.428;2022-12-18T00:17:54;52.72;;;28.40;;
72115;SDS011;59991;52.140;5.428;2022-12-18T00:18:26;58.17;;;29.10;;
72115;SDS011;59991;52.140;5.428;2022-12-18T00:18:58;55.03;;;28.10;;
72115;SDS011;59991;52.140;5.428;2022-12-18T00:19:30;53.55;;;28.38;;
72115;SDS011;59991;52.140;5.428;2022-12-18T00:20:02;54.05;;;29.33;;
72115;SDS011;59991;52.140;5.428;2022-12-18T00:20:37;53.60;;;28.07;;
72115;SDS011;59991;52.140;5.428;2022-12-18T00:21:10;49.38;;;26.67;;
72115;SDS011;59991;52.140;5.428;2022-12-18T00:21:43;53.90;;;28.30;;
72115;SDS011;59991;52.140;5.428;2022-12-18T00:22:15;53.42;;;28.83;;
72115;SDS011;59991;52.140;5.428;2022-12-18T00:22:46;54.25;;;28.48;;
72115;SDS011;59991;52.140;5.428;2022-12-18T00:23:18;58.40;;;31.27;;
72115;SDS011;59991;52.140;5.428;2022-12-18T00:23:50;52.90;;;28.65;;
72115;SDS011;59991;52.140;5.428;2022-12-18T00:24:22;56.33;;;29.80;;
72115;SDS011;59991;52.140;5.428;2022-12-18T00:24:53;55.67;;;29.45;;
72115;SDS011;59991;52.140;5.428;2022-12-18T00:25:25;54.65;;;29.73;;
72115;SDS011;59991;52.140;5.428;2022-12-18T00:26:00;54.03;;;28.90;;
72115;SDS011;59991;52.140;5.428;2022-12-18T00:26:38;56.78;;;29.63;;
72115;SDS011;59991;52.140;5.428;2022-12-18T00:27:10;53.53;;;29.83;;
72115;SDS011;59991;52.140;5.428;2022-12-18T00:27:41;54.80;;;28.30;;
72115;SDS011;59991;52.140;5.428;2022-12-18T00:28:13;58.15;;;29.88;;
72115;SDS011;59991;52.140;5.428;2022-12-18T00:28:45;57.22;;;29.05;;
72115;SDS011;59991;52.140;5.428;2022-12-18T00:29:17;55.53;;;28.55;;
72115;SDS011;59991;52.140;5.428;2022-12-18T00:29:48;60.95;;;30.65;;
72115;SDS011;59991;52.140;5.428;2022-12-18T00:30:20;58.08;;;30.58;;
72115;SDS011;59991;52.140;5.428;2022-12-18T00:30:59;57.95;;;29.00;;
72115;SDS011;59991;52.140;5.428;2022-12-18T00:31:41;59.13;;;27.67;;
72115;SDS011;59991;52.140;5.428;2022-12-18T00:32:14;55.10;;;28.25;;
72115;SDS011;59991;52.140;5.428;2022-12-18T00:32:45;59.28;;;29.95;;
72115;SDS011;59991;52.140;5.428;2022-12-18T00:33:17;57.67;;;30.05;;
72115;SDS011;59991;52.140;5.428;2022-12-18T00:33:49;57.75;;;29.58;;
72115;SDS011;59991;52.140;5.428;2022-12-18T00:34:25;55.42;;;28.20;;
72115;SDS011;59991;52.140;5.428;2022-12-18T00:34:56;55.92;;;27.83;;
72115;SDS011;59991;52.140;5.428;2022-12-18T00:35:28;55.20;;;29.40;;
72115;SDS011;59991;52.140;5.428;2022-12-18T00:36:06;56.70;;;29.92;;
72115;SDS011;59991;52.140;5.428;2022-12-18T00:36:41;55.30;;;27.05;;
72115;SDS011;59991;52.140;5.428;2022-12-18T00:37:13;60.10;;;30.10;;
72115;SDS011;59991;52.140;5.428;2022-12-18T00:37:50;54.38;;;28.70;;
72115;SDS011;59991;52.140;5.428;2022-12-18T00:38:22;60.72;;;30.02;;
72115;SDS011;59991;52.140;5.428;2022-12-18T00:38:54;60.17;;;32.50;;
72115;SDS011;59991;52.140;5.428;2022-12-18T00:39:26;57.53;;;28.60;;
72115;SDS011;59991;52.140;5.428;2022-12-18T00:39:58;54.30;;;28.50;;
72115;SDS011;59991;52.140;5.428;2022-12-18T00:40:29;57.95;;;29.13;;
72115;SDS011;59991;52.140;5.428;2022-12-18T00:41:01;56.30;;;29.70;;
72115;SDS011;59991;52.140;5.428;2022-12-18T00:41:36;60.60;;;30.00;;
72115;SDS011;59991;52.140;5.428;2022-12-18T00:42:26;49.72;;;26.25;;
72115;SDS011;59991;52.140;5.428;2022-12-18T00:43:16;52.13;;;26.33;;
72115;SDS011;59991;52.140;5.428;2022-12-18T00:43:47;54.38;;;27.17;;
72115;SDS011;59991;52.140;5.428;2022-12-18T00:44:19;59.05;;;28.00;;
72115;SDS011;59991;52.140;5.428;2022-12-18T00:44:51;57.10;;;29.50;;
72115;SDS011;59991;52.140;5.428;2022-12-18T00:45:23;55.58;;;27.83;;
72115;SDS011;59991;52.140;5.428;2022-12-18T00:45:59;58.55;;;28.85;;
72115;SDS011;59991;52.140;5.428;2022-12-18T00:46:31;50.20;;;26.92;;
72115;SDS011;59991;52.140;5.428;2022-12-18T00:47:03;56.72;;;28.77;;
72115;SDS011;59991;52.140;5.428;2022-12-18T00:47:52;53.92;;;27.88;;
72115;SDS011;59991;52.140;5.428;2022-12-18T00:48:23;57.05;;;27.80;;
72115;SDS011;59991;52.140;5.428;2022-12-18T00:48:55;51.83;;;27.60;;
72115;SDS011;59991;52.140;5.428;2022-12-18T00:49:26;53.65;;;28.88;;
72115;SDS011;59991;52.140;5.428;2022-12-18T00:49:58;55.67;;;28.88;;
72115;SDS011;59991;52.140;5.428;2022-12-18T00:50:29;51.65;;;28.80;;
72115;SDS011;59991;52.140;5.428;2022-12-18T00:51:01;56.58;;;30.75;;
72115;SDS011;59991;52.140;5.428;2022-12-18T00:51:33;58.95;;;29.40;;
72115;SDS011;59991;52.140;5.428;2022-12-18T00:52:05;56.97;;;29.33;;
72115;SDS011;59991;52.140;5.428;2022-12-18T00:52:36;50.13;;;27.63;;
72115;SDS011;59991;52.140;5.428;2022-12-18T00:53:08;56.05;;;29.77;;
72115;SDS011;59991;52.140;5.428;2022-12-18T00:53:39;60.45;;;28.58;;
72115;SDS011;59991;52.140;5.428;2022-12-18T00:54:12;58.20;;;30.93;;
72115;SDS011;59991;52.140;5.428;2022-12-18T00:54:44;53.95;;;28.88;;
72115;SDS011;59991;52.140;5.428;2022-12-18T00:55:15;59.22;;;28.48;;
72115;SDS011;59991;52.140;5.428;2022-12-18T00:55:47;60.90;;;32.22;;
72115;SDS011;59991;52.140;5.428;2022-12-18T00:56:22;52.22;;;27.73;;
72115;SDS011;59991;52.140;5.428;2022-12-18T00:56:54;55.53;;;29.33;;
72115;SDS011;59991;52.140;5.428;2022-12-18T00:57:26;57.05;;;28.48;;
72115;SDS011;59991;52.140;5.428;2022-12-18T00:57:57;59.55;;;29.63;;
72115;SDS011;59991;52.140;5.428;2022-12-18T00:58:29;58.75;;;29.27;;
72115;SDS011;59991;52.140;5.428;2022-12-18T00:59:00;53.15;;;27.20;;
72115;SDS011;59991;52.140;5.428;2022-12-18T00:59:32;59.00;;;29.70;;
72115;SDS011;59991;52.140;5.428;2022-12-18T01:00:04;56.50;;;29.00;;
72115;SDS011;59991;52.140;5.428;2022-12-18T01:00:37;59.70;;;29.77;;
72115;SDS011;59991;52.140;5.428;2022-12-18T01:01:09;55.08;;;29.75;;
72115;SDS011;59991;52.140;5.428;2022-12-18T01:01:40;55.50;;;28.15;;
72115;SDS011;59991;52.140;5.428;2022-12-18T01:02:12;56.58;;;29.33;;
72115;SDS011;59991;52.140;5.428;2022-12-18T01:02:44;60.22;;;31.48;;
72115;SDS011;59991;52.140;5.428;2022-12-18T01:03:16;55.97;;;29.40;;
72115;SDS011;59991;52.140;5.428;2022-12-18T01:03:47;58.42;;;29.73;;
72115;SDS011;59991;52.140;5.428;2022-12-18T01:04:19;59.47;;;30.15;;
72115;SDS011;59991;52.140;5.428;2022-12-18T01:04:51;57.83;;;29.77;;
72115;SDS011;59991;52.140;5.428;2022-12-18T01:05:22;58.58;;;30.50;;
72115;SDS011;59991;52.140;5.428;2022-12-18T01:05:54;59.45;;;29.50;;
72115;SDS011;59991;52.140;5.428;2022-12-18T01:06:26;61.53;;;30.48;;
72115;SDS011;59991;52.140;5.428;2022-12-18T01:06:57;58.22;;;29.63;;
72115;SDS011;59991;52.140;5.428;2022-12-18T01:07:29;54.75;;;28.05;;
72115;SDS011;59991;52.140;5.428;2022-12-18T01:08:00;55.67;;;30.52;;
72115;SDS011;59991;52.140;5.428;2022-12-18T01:08:32;58.22;;;29.75;;
72115;SDS011;59991;52.140;5.428;2022-12-18T01:09:03;59.42;;;30.55;;
72115;SDS011;59991;52.140;5.428;2022-12-18T01:09:35;63.25;;;31.08;;
72115;SDS011;59991;52.140;5.428;2022-12-18T01:10:07;59.83;;;32.00;;
72115;SDS011;59991;52.140;5.428;2022-12-18T01:10:40;58.05;;;30.88;;
72115;SDS011;59991;52.140;5.428;2022-12-18T01:11:14;57.88;;;31.05;;
72115;SDS011;59991;52.140;5.428;2022-12-18T01:11:48;62.00;;;30.98;;
72115;SDS011;59991;52.140;5.428;2022-12-18T01:12:19;54.58;;;29.58;;
72115;SDS011;59991;52.140;5.428;2022-12-18T01:12:51;55.17;;;29.27;;
72115;SDS011;59991;52.140;5.428;2022-12-18T01:13:22;57.42;;;30.27;;
72115;SDS011;59991;52.140;5.428;2022-12-18T01:13:54;55.88;;;28.60;;
72115;SDS011;59991;52.140;5.428;2022-12-18T01:14:26;57.80;;;30.25;;
72115;SDS011;59991;52.140;5.428;2022-12-18T01:14:57;57.25;;;29.35;;
72115;SDS011;59991;52.140;5.428;2022-12-18T01:15:29;57.37;;;30.43;;
72115;SDS011;59991;52.140;5.428;2022-12-18T01:16:01;59.72;;;29.40;;
72115;SDS011;59991;52.140;5.428;2022-12-18T01:16:32;55.88;;;29.80;;
72115;SDS011;59991;52.140;5.428;2022-12-18T01:17:04;52.90;;;28.80;;
72115;SDS011;59991;52.140;5.428;2022-12-18T01:17:35;55.70;;;30.60;;
72115;SDS011;59991;52.140;5.428;2022-12-18T01:18:07;55.50;;;29.48;;
72115;SDS011;59991;52.140;5.428;2022-12-18T01:18:39;58.85;;;29.83;;
72115;SDS011;59991;52.140;5.428;2022-12-18T01:19:10;59.03;;;29.15;;
72115;SDS011;59991;52.140;5.428;2022-12-18T01:19:42;52.75;;;30.65;;
72115;SDS011;59991;52.140;5.428;2022-12-18T01:20:14;59.40;;;29.30;;
72115;SDS011;59991;52.140;5.428;2022-12-18T01:20:46;53.23;;;28.93;;
72115;SDS011;59991;52.140;5.428;2022-12-18T01:21:17;59.42;;;29.92;;
72115;SDS011;59991;52.140;5.428;2022-12-18T01:21:49;61.17;;;30.13;;
72115;SDS011;59991;52.140;5.428;2022-12-18T01:22:20;64.20;;;31.55;;
72115;SDS011;59991;52.140;5.428;2022-12-18T01:22:52;57.33;;;28.08;;
72115;SDS011;59991;52.140;5.428;2022-12-18T01:23:23;55.15;;;29.35;;
72115;SDS011;59991;52.140;5.428;2022-12-18T01:23:55;57.22;;;29.67;;
72115;SDS011;59991;52.140;5.428;2022-12-18T01:24:28;54.50;;;29.73;;
72115;SDS011;59991;52.140;5.428;2022-12-18T01:25:00;58.75;;;31.23;;
72115;SDS011;59991;52.140;5.428;2022-12-18T01:25:32;56.42;;;28.23;;
72115;SDS011;59991;52.140;5.428;2022-12-18T01:26:06;57.90;;;29.73;;
72115;SDS011;59991;52.140;5.428;2022-12-18T01:26:38;56.83;;;29.15;;
72115;SDS011;59991;52.140;5.428;2022-12-18T01:27:10;56.10;;;29.80;;
72115;SDS011;59991;52.140;5.428;2022-12-18T01:27:41;59.53;;;30.83;;
72115;SDS011;59991;52.140;5.428;2022-12-18T01:28:13;60.10;;;30.35;;
72115;SDS011;59991;52.140;5.428;2022-12-18T01:28:44;53.15;;;29.70;;
72115;SDS011;59991;52.140;5.428;2022-12-18T01:29:16;55.45;;;29.52;;
72115;SDS011;59991;52.140;5.428;2022-12-18T01:29:48;58.08;;;29.25;;
72115;SDS011;59991;52.140;5.428;2022-12-18T01:30:20;56.58;;;30.25;;
72115;SDS011;59991;52.140;5.428;2022-12-18T01:30:52;57.05;;;29.55;;
72115;SDS011;59991;52.140;5.428;2022-12-18T01:31:24;56.67;;;29.67;;
72115;SDS011;59991;52.140;5.428;2022-12-18T01:31:57;58.90;;;30.08;;
72115;SDS011;59991;52.140;5.428;2022-12-18T01:32:30;57.83;;;31.17;;
72115;SDS011;59991;52.140;5.428;2022-12-18T01:33:03;59.65;;;31.65;;
72115;SDS011;59991;52.140;5.428;2022-12-18T01:33:35;54.72;;;28.75;;
72115;SDS011;59991;52.140;5.428;2022-12-18T01:34:08;55.85;;;29.35;;
72115;SDS011;59991;52.140;5.428;2022-12-18T01:34:40;56.20;;;29.70;;
72115;SDS011;59991;52.140;5.428;2022-12-18T01:35:11;56.28;;;30.20;;
72115;SDS011;59991;52.140;5.428;2022-12-18T01:35:43;55.97;;;29.90;;
72115;SDS011;59991;52.140;5.428;2022-12-18T01:36:15;61.20;;;29.98;;
72115;SDS011;59991;52.140;5.428;2022-12-18T01:37:06;54.97;;;27.83;;
72115;SDS011;59991;52.140;5.428;2022-12-18T01:37:38;57.47;;;29.20;;
72115;SDS011;59991;52.140;5.428;2022-12-18T01:38:09;57.20;;;30.92;;
72115;SDS011;59991;52.140;5.428;2022-12-18T01:38:41;61.30;;;29.77;;
72115;SDS011;59991;52.140;5.428;2022-12-18T01:39:13;53.53;;;29.23;;
72115;SDS011;59991;52.140;5.428;2022-12-18T01:39:46;56.85;;;29.48;;
72115;SDS011;59991;52.140;5.428;2022-12-18T01:40:17;55.65;;;29.90;;
72115;SDS011;59991;52.140;5.428;2022-12-18T01:40:49;55.95;;;29.98;;
72115;SDS011;59991;52.140;5.428;2022-12-18T01:41:24;57.83;;;30.90;;
72115;SDS011;59991;52.140;5.428;2022-12-18T01:42:00;58.08;;;28.83;;
72115;SDS011;59991;52.140;5.428;2022-12-18T01:42:35;56.47;;;29.13;;
72115;SDS011;59991;52.140;5.428;2022-12-18T01:43:08;56.80;;;29.00;;
72115;SDS011;59991;52.140;5.428;2022-12-18T01:43:58;53.10;;;27.65;;
72115;SDS011;59991;52.140;5.428;2022-12-18T01:45:31;52.83;;;27.25;;
72115;SDS011;59991;52.140;5.428;2022-12-18T01:46:03;53.67;;;26.63;;
72115;SDS011;59991;52.140;5.428;2022-12-18T01:46:34;52.88;;;28.17;;
72115;SDS011;59991;52.140;5.428;2022-12-18T01:47:06;54.28;;;29.27;;
72115;SDS011;59991;52.140;5.428;2022-12-18T01:47:41;60.17;;;31.45;;
72115;SDS011;59991;52.140;5.428;2022-12-18T01:48:16;55.90;;;29.45;;
72115;SDS011;59991;52.140;5.428;2022-12-18T01:48:48;55.53;;;28.90;;
72115;SDS011;59991;52.140;5.428;2022-12-18T01:49:22;54.55;;;27.20;;
72115;SDS011;59991;52.140;5.428;2022-12-18T01:49:54;54.75;;;30.05;;
72115;SDS011;59991;52.140;5.428;2022-12-18T01:50:29;59.63;;;28.80;;
72115;SDS011;59991;52.140;5.428;2022-12-18T01:51:07;54.50;;;27.67;;
72115;SDS011;59991;52.140;5.428;2022-12-18T01:51:41;52.45;;;28.42;;
72115;SDS011;59991;52.140;5.428;2022-12-18T01:52:15;57.38;;;28.48;;
72115;SDS011;59991;52.140;5.428;2022-12-18T01:52:52;56.33;;;27.95;;
72115;SDS011;59991;52.140;5.428;2022-12-18T01:53:26;54.85;;;29.38;;
72115;SDS011;59991;52.140;5.428;2022-12-18T01:53:58;57.95;;;30.23;;
72115;SDS011;59991;52.140;5.428;2022-12-18T01:54:49;58.67;;;28.73;;
72115;SDS011;59991;52.140;5.428;2022-12-18T01:55:23;53.47;;;28.40;;
72115;SDS011;59991;52.140;5.428;2022-12-18T01:55:57;51.80;;;27.85;;
72115;SDS011;59991;52.140;5.428;2022-12-18T01:56:30;55.22;;;30.67;;
72115;SDS011;59991;52.140;5.428;2022-12-18T01:57:02;54.50;;;28.48;;
72115;SDS011;59991;52.140;5.428;2022-12-18T01:57:33;54.88;;;27.83;;
72115;SDS011;59991;52.140;5.428;2022-12-18T01:58:06;57.75;;;30.08;;
72115;SDS011;59991;52.140;5.428;2022-12-18T01:59:18;51.88;;;28.42;;
72115;SDS011;59991;52.140;5.428;2022-12-18T01:59:50;56.30;;;27.40;;
72115;SDS011;59991;52.140;5.428;2022-12-18T02:00:25;56.07;;;29.07;;
72115;SDS011;59991;52.140;5.428;2022-12-18T02:00:57;59.25;;;29.38;;
72115;SDS011;59991;52.140;5.428;2022-12-18T02:01:29;54.38;;;29.70;;
72115;SDS011;59991;52.140;5.428;2022-12-18T02:02:02;53.78;;;29.42;;
72115;SDS011;59991;52.140;5.428;2022-12-18T02:02:34;52.90;;;28.77;;
72115;SDS011;59991;52.140;5.428;2022-12-18T02:03:06;53.55;;;28.27;;
72115;SDS011;59991;52.140;5.428;2022-12-18T02:03:40;56.25;;;28.05;;
72115;SDS011;59991;52.140;5.428;2022-12-18T02:04:24;55.20;;;29.48;;
72115;SDS011;59991;52.140;5.428;2022-12-18T02:04:58;50.72;;;28.02;;
72115;SDS011;59991;52.140;5.428;2022-12-18T02:06:28;53.37;;;26.60;;
72115;SDS011;59991;52.140;5.428;2022-12-18T02:08:37;47.47;;;25.63;;
72115;SDS011;59991;52.140;5.428;2022-12-18T02:09:15;55.83;;;26.95;;
72115;SDS011;59991;52.140;5.428;2022-12-18T02:09:59;54.42;;;28.15;;
72115;SDS011;59991;52.140;5.428;2022-12-18T02:10:38;51.47;;;27.30;;
72115;SDS011;59991;52.140;5.428;2022-12-18T02:12:13;51.60;;;25.65;;
72115;SDS011;59991;52.140;5.428;2022-12-18T02:12:39;49.45;;;26.95;;
72115;SDS011;59991;52.140;5.428;2022-12-18T02:13:20;51.50;;;26.00;;
72115;SDS011;59991;52.140;5.428;2022-12-18T02:14:22;51.22;;;25.00;;
72115;SDS011;59991;52.140;5.428;2022-12-18T02:15:15;48.00;;;26.07;;
72115;SDS011;59991;52.140;5.428;2022-12-18T02:16:03;49.17;;;24.55;;
72115;SDS011;59991;52.140;5.428;2022-12-18T02:17:54;50.75;;;26.80;;
72115;SDS011;59991;52.140;5.428;2022-12-18T02:18:33;50.63;;;25.48;;
72115;SDS011;59991;52.140;5.428;2022-12-18T02:19:15;51.75;;;26.20;;
72115;SDS011;59991;52.140;5.428;2022-12-18T02:21:54;53.63;;;26.60;;
72115;SDS011;59991;52.140;5.428;2022-12-18T02:22:44;45.75;;;26.00;;
72115;SDS011;59991;52.140;5.428;2022-12-18T02:23:32;52.43;;;25.90;;
72115;SDS011;59991;52.140;5.428;2022-12-18T02:24:17;50.40;;;25.83;;
72115;SDS011;59991;52.140;5.428;2022-12-18T02:25:07;54.90;;;27.23;;
72115;SDS011;59991;52.140;5.428;2022-12-18T02:26:34;53.97;;;26.35;;
72115;SDS011;59991;52.140;5.428;2022-12-18T02:27:11;54.60;;;26.23;;
72115;SDS011;59991;52.140;5.428;2022-12-18T02:27:44;53.80;;;26.55;;
72115;SDS011;59991;52.140;5.428;2022-12-18T02:28:20;53.85;;;27.90;;
72115;SDS011;59991;52.140;5.428;2022-12-18T02:28:56;56.15;;;28.92;;
72115;SDS011;59991;52.140;5.428;2022-12-18T02:29:31;51.47;;;26.27;;
72115;SDS011;59991;52.140;5.428;2022-12-18T02:30:23;59.03;;;28.50;;
72115;SDS011;59991;52.140;5.428;2022-12-18T02:30:54;49.55;;;26.23;;
72115;SDS011;59991;52.140;5.428;2022-12-18T02:31:31;55.28;;;27.83;;
72115;SDS011;59991;52.140;5.428;2022-12-18T02:32:13;56.17;;;28.42;;
72115;SDS011;59991;52.140;5.428;2022-12-18T02:32:49;51.58;;;28.13;;
72115;SDS011;59991;52.140;5.428;2022-12-18T02:33:23;56.10;;;28.52;;
72115;SDS011;59991;52.140;5.428;2022-12-18T02:33:58;55.40;;;28.13;;
72115;SDS011;59991;52.140;5.428;2022-12-18T02:34:34;53.42;;;27.35;;
72115;SDS011;59991;52.140;5.428;2022-12-18T02:35:10;52.03;;;26.83;;
72115;SDS011;59991;52.140;5.428;2022-12-18T02:35:45;53.42;;;27.50;;
72115;SDS011;59991;52.140;5.428;2022-12-18T02:36:17;53.67;;;27.67;;
72115;SDS011;59991;52.140;5.428;2022-12-18T02:36:51;58.88;;;28.63;;
72115;SDS011;59991;52.140;5.428;2022-12-18T02:37:25;54.88;;;28.50;;
72115;SDS011;59991;52.140;5.428;2022-12-18T02:37:59;55.83;;;29.85;;
72115;SDS011;59991;52.140;5.428;2022-12-18T02:38:31;51.72;;;29.60;;
72115;SDS011;59991;52.140;5.428;2022-12-18T02:39:05;56.95;;;29.77;;
72115;SDS011;59991;52.140;5.428;2022-12-18T02:39:40;59.30;;;28.10;;
72115;SDS011;59991;52.140;5.428;2022-12-18T02:40:14;50.67;;;27.77;;
72115;SDS011;59991;52.140;5.428;2022-12-18T02:40:48;60.55;;;30.30;;
72115;SDS011;59991;52.140;5.428;2022-12-18T02:41:22;56.78;;;27.20;;
72115;SDS011;59991;52.140;5.428;2022-12-18T02:41:54;50.37;;;28.27;;
72115;SDS011;59991;52.140;5.428;2022-12-18T02:42:26;55.38;;;28.90;;
72115;SDS011;59991;52.140;5.428;2022-12-18T02:43:02;55.30;;;29.45;;
72115;SDS011;59991;52.140;5.428;2022-12-18T02:43:46;55.03;;;30.10;;
72115;SDS011;59991;52.140;5.428;2022-12-18T02:44:24;51.38;;;27.30;;
72115;SDS011;59991;52.140;5.428;2022-12-18T02:44:56;52.00;;;27.52;;
72115;SDS011;59991;52.140;5.428;2022-12-18T02:45:28;55.20;;;29.67;;
72115;SDS011;59991;52.140;5.428;2022-12-18T02:46:00;59.25;;;29.63;;
72115;SDS011;59991;52.140;5.428;2022-12-18T02:46:52;54.95;;;27.80;;
72115;SDS011;59991;52.140;5.428;2022-12-18T02:47:27;50.50;;;27.48;;
72115;SDS011;59991;52.140;5.428;2022-12-18T02:48:02;58.03;;;29.50;;
72115;SDS011;59991;52.140;5.428;2022-12-18T02:48:34;57.17;;;28.25;;
72115;SDS011;59991;52.140;5.428;2022-12-18T02:49:57;53.97;;;29.15;;
72115;SDS011;59991;52.140;5.428;2022-12-18T02:50:35;51.60;;;26.80;;
72115;SDS011;59991;52.140;5.428;2022-12-18T02:52:22;49.75;;;25.23;;
72115;SDS011;59991;52.140;5.428;2022-12-18T02:53:06;47.10;;;26.23;;
72115;SDS011;59991;52.140;5.428;2022-12-18T02:53:53;48.05;;;26.42;;
72115;SDS011;59991;52.140;5.428;2022-12-18T02:54:41;54.25;;;26.73;;
72115;SDS011;59991;52.140;5.428;2022-12-18T02:55:27;49.83;;;24.87;;
72115;SDS011;59991;52.140;5.428;2022-12-18T02:56:21;48.45;;;23.55;;
72115;SDS011;59991;52.140;5.428;2022-12-18T02:57:02;45.92;;;24.40;;
72115;SDS011;59991;52.140;5.428;2022-12-18T02:57:49;48.90;;;24.30;;
72115;SDS011;59991;52.140;5.428;2022-12-18T02:59:19;48.75;;;24.98;;
72115;SDS011;59991;52.140;5.428;2022-12-18T03:00:07;46.33;;;25.17;;
72115;SDS011;59991;52.140;5.428;2022-12-18T03:00:48;47.08;;;25.38;;
72115;SDS011;59991;52.140;5.428;2022-12-18T03:01:33;52.65;;;25.23;;
72115;SDS011;59991;52.140;5.428;2022-12-18T03:02:17;46.92;;;24.75;;
72115;SDS011;59991;52.140;5.428;2022-12-18T03:02:59;41.80;;;23.67;;
72115;SDS011;59991;52.140;5.428;2022-12-18T03:03:42;48.85;;;26.05;;
72115;SDS011;59991;52.140;5.428;2022-12-18T03:05:16;45.47;;;24.35;;
72115;SDS011;59991;52.140;5.428;2022-12-18T03:06:14;45.08;;;23.90;;
72115;SDS011;59991;52.140;5.428;2022-12-18T03:06:52;46.85;;;25.05;;
72115;SDS011;59991;52.140;5.428;2022-12-18T03:07:35;50.33;;;25.83;;
72115;SDS011;59991;52.140;5.428;2022-12-18T03:08:24;44.00;;;23.67;;
72115;SDS011;59991;52.140;5.428;2022-12-18T03:09:12;44.38;;;24.80;;
72115;SDS011;59991;52.140;5.428;2022-12-18T03:09:53;50.28;;;24.77;;
72115;SDS011;59991;52.140;5.428;2022-12-18T03:10:29;45.80;;;24.00;;
72115;SDS011;59991;52.140;5.428;2022-12-18T03:11:08;46.92;;;24.50;;
72115;SDS011;59991;52.140;5.428;2022-12-18T03:11:42;49.17;;;26.25;;
72115;SDS011;59991;52.140;5.428;2022-12-18T03:12:40;49.05;;;25.48;;
72115;SDS011;59991;52.140;5.428;2022-12-18T03:13:22;49.08;;;25.23;;
72115;SDS011;59991;52.140;5.428;2022-12-18T03:13:59;43.45;;;23.85;;
72115;SDS011;59991;52.140;5.428;2022-12-18T03:14:32;50.50;;;25.77;;
72115;SDS011;59991;52.140;5.428;2022-12-18T03:15:09;43.17;;;24.50;;
72115;SDS011;59991;52.140;5.428;2022-12-18T03:15:49;52.58;;;27.83;;
72115;SDS011;59991;52.140;5.428;2022-12-18T03:16:25;44.65;;;26.48;;
72115;SDS011;59991;52.140;5.428;2022-12-18T03:17:03;47.07;;;27.10;;
72115;SDS011;59991;52.140;5.428;2022-12-18T03:17:41;43.38;;;24.58;;
72115;SDS011;59991;52.140;5.428;2022-12-18T03:18:30;53.35;;;27.23;;
72115;SDS011;59991;52.140;5.428;2022-12-18T03:19:11;47.05;;;25.13;;
72115;SDS011;59991;52.140;5.428;2022-12-18T03:19:48;45.85;;;25.88;;
72115;SDS011;59991;52.140;5.428;2022-12-18T03:20:21;47.40;;;24.90;;
72115;SDS011;59991;52.140;5.428;2022-12-18T03:20:55;50.00;;;26.70;;
72115;SDS011;59991;52.140;5.428;2022-12-18T03:21:36;47.25;;;26.52;;
72115;SDS011;59991;52.140;5.428;2022-12-18T03:22:13;46.47;;;26.00;;
72115;SDS011;59991;52.140;5.428;2022-12-18T03:22:48;45.40;;;26.02;;
72115;SDS011;59991;52.140;5.428;2022-12-18T03:23:24;48.67;;;25.03;;
72115;SDS011;59991;52.140;5.428;2022-12-18T03:24:00;47.78;;;25.80;;
72115;SDS011;59991;52.140;5.428;2022-12-18T03:24:34;51.97;;;27.60;;
72115;SDS011;59991;52.140;5.428;2022-12-18T03:25:11;44.75;;;26.08;;
72115;SDS011;59991;52.140;5.428;2022-12-18T03:25:45;49.65;;;27.45;;
72115;SDS011;59991;52.140;5.428;2022-12-18T03:26:21;48.38;;;27.25;;
72115;SDS011;59991;52.140;5.428;2022-12-18T03:27:00;49.03;;;26.45;;
72115;SDS011;59991;52.140;5.428;2022-12-18T03:27:34;47.17;;;26.73;;
72115;SDS011;59991;52.140;5.428;2022-12-18T03:28:12;48.28;;;26.15;;
72115;SDS011;59991;52.140;5.428;2022-12-18T03:28:51;49.33;;;27.25;;
72115;SDS011;59991;52.140;5.428;2022-12-18T03:29:27;48.10;;;25.47;;
72115;SDS011;59991;52.140;5.428;2022-12-18T03:30:06;43.53;;;26.75;;
72115;SDS011;59991;52.140;5.428;2022-12-18T03:30:41;41.92;;;25.33;;
72115;SDS011;59991;52.140;5.428;2022-12-18T03:31:17;46.03;;;25.30;;
72115;SDS011;59991;52.140;5.428;2022-12-18T03:32:02;47.97;;;25.30;;
72115;SDS011;59991;52.140;5.428;2022-12-18T03:32:40;45.15;;;24.45;;
72115;SDS011;59991;52.140;5.428;2022-12-18T03:34:21;43.38;;;22.52;;
72115;SDS011;59991;52.140;5.428;2022-12-18T03:34:58;39.03;;;24.27;;
72115;SDS011;59991;52.140;5.428;2022-12-18T03:35:35;42.83;;;23.70;;
72115;SDS011;59991;52.140;5.428;2022-12-18T03:36:10;45.67;;;24.97;;
72115;SDS011;59991;52.140;5.428;2022-12-18T03:36:42;41.13;;;23.25;;
72115;SDS011;59991;52.140;5.428;2022-12-18T03:37:14;50.92;;;26.90;;
72115;SDS011;59991;52.140;5.428;2022-12-18T03:37:46;41.85;;;24.10;;
72115;SDS011;59991;52.140;5.428;2022-12-18T03:38:18;42.53;;;25.23;;
72115;SDS011;59991;52.140;5.428;2022-12-18T03:38:50;40.45;;;24.30;;
72115;SDS011;59991;52.140;5.428;2022-12-18T03:39:22;43.03;;;24.08;;